sensor_id;sensor_type;location;lat;lon;timestamp;P1;durP1;ratioP1;P2;durP2;ratioP2
67156;SDS011;54086;50.126;8.710;2023-02-11T00:00:23;42.80;;;21.48;;
67156;SDS011;54086;50.126;8.710;2023-02-11T00:02:48;45.13;;;22.30;;
67156;SDS011;54086;50.126;8.710;2023-02-11T00:05:14;44.47;;;21.43;;
67156;SDS011;54086;50.126;8.710;2023-02-11T00:07:39;43.33;;;22.73;;
67156;SDS011;54086;50.126;8.710;2023-02-11T00:10:05;45.37;;;23.03;;
67156;SDS011;54086;50.126;8.710;2023-02-11T00:12:32;52.78;;;23.40;;
67156;SDS011;54086;50.126;8.710;2023-02-11T00:14:58;49.90;;;23.30;;
67156;SDS011;54086;50.126;8.710;2023-02-11T00:17:23;46.17;;;23.40;;
67156;SDS011;54086;50.126;8.710;2023-02-11T00:19:49;44.60;;;23.40;;
67156;SDS011;54086;50.126;8.710;2023-02-11T00:22:15;45.83;;;22.75;;
67156;SDS011;54086;50.126;8.710;2023-02-11T00:24:40;46.47;;;23.90;;
67156;SDS011;54086;50.126;8.710;2023-02-11T00:27:06;47.37;;;23.07;;
67156;SDS011;54086;50.126;8.710;2023-02-11T00:29:31;44.07;;;21.63;;
67156;SDS011;54086;50.126;8.710;2023-02-11T00:31:57;46.27;;;23.63;;
67156;SDS011;54086;50.126;8.710;2023-02-11T00:34:22;45.97;;;22.48;;
67156;SDS011;54086;50.126;8.710;2023-02-11T00:36:47;43.90;;;22.40;;
67156;SDS011;54086;50.126;8.710;2023-02-11T00:39:13;47.90;;;24.17;;
67156;SDS011;54086;50.126;8.710;2023-02-11T00:41:39;42.63;;;23.00;;
67156;SDS011;54086;50.126;8.710;2023-02-11T00:44:04;45.47;;;23.07;;
67156;SDS011;54086;50.126;8.710;2023-02-11T00:46:30;47.23;;;23.03;;
67156;SDS011;54086;50.126;8.710;2023-02-11T00:48:55;44.40;;;22.13;;
67156;SDS011;54086;50.126;8.710;2023-02-11T00:51:25;45.83;;;22.17;;
67156;SDS011;54086;50.126;8.710;2023-02-11T00:53:51;48.92;;;22.92;;
67156;SDS011;54086;50.126;8.710;2023-02-11T00:56:17;43.15;;;21.35;;
67156;SDS011;54086;50.126;8.710;2023-02-11T00:58:42;38.93;;;20.67;;
67156;SDS011;54086;50.126;8.710;2023-02-11T01:01:08;47.93;;;23.03;;
67156;SDS011;54086;50.126;8.710;2023-02-11T01:03:33;42.83;;;21.43;;
67156;SDS011;54086;50.126;8.710;2023-02-11T01:05:59;45.58;;;21.88;;
67156;SDS011;54086;50.126;8.710;2023-02-11T01:08:25;46.47;;;22.63;;
67156;SDS011;54086;50.126;8.710;2023-02-11T01:10:54;43.35;;;22.52;;
67156;SDS011;54086;50.126;8.710;2023-02-11T01:13:24;44.25;;;21.60;;
67156;SDS011;54086;50.126;8.710;2023-02-11T01:15:51;52.00;;;24.08;;
67156;SDS011;54086;50.126;8.710;2023-02-11T01:18:16;46.37;;;22.73;;
67156;SDS011;54086;50.126;8.710;2023-02-11T01:20:41;43.80;;;21.73;;
67156;SDS011;54086;50.126;8.710;2023-02-11T01:23:07;42.77;;;22.27;;
67156;SDS011;54086;50.126;8.710;2023-02-11T01:25:32;43.33;;;21.60;;
67156;SDS011;54086;50.126;8.710;2023-02-11T01:27:58;43.55;;;22.33;;
67156;SDS011;54086;50.126;8.710;2023-02-11T01:30:23;44.07;;;22.80;;
67156;SDS011;54086;50.126;8.710;2023-02-11T01:32:48;43.57;;;22.00;;
67156;SDS011;54086;50.126;8.710;2023-02-11T01:35:14;42.67;;;20.87;;
67156;SDS011;54086;50.126;8.710;2023-02-11T01:37:39;42.80;;;21.80;;
67156;SDS011;54086;50.126;8.710;2023-02-11T01:40:06;41.85;;;20.83;;
67156;SDS011;54086;50.126;8.710;2023-02-11T01:42:36;43.65;;;21.75;;
67156;SDS011;54086;50.126;8.710;2023-02-11T01:45:51;45.13;;;21.63;;
67156;SDS011;54086;50.126;8.710;2023-02-11T01:48:05;41.92;;;23.05;;
67156;SDS011;54086;50.126;8.710;2023-02-11T01:50:32;43.92;;;21.73;;
67156;SDS011;54086;50.126;8.710;2023-02-11T01:52:58;42.95;;;22.40;;
67156;SDS011;54086;50.126;8.710;2023-02-11T01:55:44;45.63;;;21.40;;
67156;SDS011;54086;50.126;8.710;2023-02-11T01:58:27;43.05;;;21.80;;
67156;SDS011;54086;50.126;8.710;2023-02-11T02:00:56;43.83;;;21.50;;
67156;SDS011;54086;50.126;8.710;2023-02-11T02:03:22;43.40;;;21.13;;
67156;SDS011;54086;50.126;8.710;2023-02-11T02:06:02;42.28;;;22.10;;
67156;SDS011;54086;50.126;8.710;2023-02-11T02:08:30;46.13;;;21.73;;
67156;SDS011;54086;50.126;8.710;2023-02-11T02:10:58;45.03;;;22.30;;
67156;SDS011;54086;50.126;8.710;2023-02-11T02:13:25;43.78;;;21.52;;
67156;SDS011;54086;50.126;8.710;2023-02-11T02:15:55;42.80;;;20.83;;
67156;SDS011;54086;50.126;8.710;2023-02-11T02:38:06;42.25;;;22.10;;
67156;SDS011;54086;50.126;8.710;2023-02-11T02:40:37;46.38;;;22.15;;
67156;SDS011;54086;50.126;8.710;2023-02-11T02:43:10;42.70;;;21.05;;
67156;SDS011;54086;50.126;8.710;2023-02-11T02:45:36;45.25;;;22.15;;
67156;SDS011;54086;50.126;8.710;2023-02-11T02:48:02;45.90;;;22.10;;
67156;SDS011;54086;50.126;8.710;2023-02-11T02:50:29;44.97;;;22.27;;
67156;SDS011;54086;50.126;8.710;2023-02-11T02:55:59;43.85;;;22.50;;
67156;SDS011;54086;50.126;8.710;2023-02-11T02:58:47;46.93;;;20.80;;
67156;SDS011;54086;50.126;8.710;2023-02-11T03:04:22;43.28;;;22.23;;
67156;SDS011;54086;50.126;8.710;2023-02-11T03:09:45;46.97;;;23.23;;
67156;SDS011;54086;50.126;8.710;2023-02-11T03:12:17;45.17;;;23.13;;
67156;SDS011;54086;50.126;8.710;2023-02-11T03:14:44;48.42;;;23.90;;
67156;SDS011;54086;50.126;8.710;2023-02-11T03:17:10;49.00;;;24.60;;
67156;SDS011;54086;50.126;8.710;2023-02-11T03:19:38;45.40;;;21.05;;
67156;SDS011;54086;50.126;8.710;2023-02-11T03:22:09;51.58;;;23.17;;
67156;SDS011;54086;50.126;8.710;2023-02-11T03:24:40;42.97;;;22.47;;
67156;SDS011;54086;50.126;8.710;2023-02-11T03:34:58;52.33;;;23.43;;
67156;SDS011;54086;50.126;8.710;2023-02-11T03:37:30;43.60;;;22.65;;
67156;SDS011;54086;50.126;8.710;2023-02-11T03:40:02;47.03;;;22.80;;
67156;SDS011;54086;50.126;8.710;2023-02-11T03:42:33;46.95;;;23.02;;
67156;SDS011;54086;50.126;8.710;2023-02-11T03:45:04;51.28;;;24.33;;
67156;SDS011;54086;50.126;8.710;2023-02-11T03:47:33;46.90;;;23.60;;
67156;SDS011;54086;50.126;8.710;2023-02-11T03:50:03;45.80;;;22.30;;
67156;SDS011;54086;50.126;8.710;2023-02-11T03:52:30;48.92;;;23.35;;
67156;SDS011;54086;50.126;8.710;2023-02-11T03:54:58;45.63;;;21.70;;
67156;SDS011;54086;50.126;8.710;2023-02-11T03:57:25;45.47;;;22.20;;
67156;SDS011;54086;50.126;8.710;2023-02-11T03:59:57;45.57;;;21.23;;
67156;SDS011;54086;50.126;8.710;2023-02-11T04:02:24;42.33;;;21.33;;
67156;SDS011;54086;50.126;8.710;2023-02-11T04:04:53;43.90;;;21.67;;
67156;SDS011;54086;50.126;8.710;2023-02-11T04:07:18;44.55;;;20.75;;
67156;SDS011;54086;50.126;8.710;2023-02-11T04:09:44;46.63;;;21.43;;
67156;SDS011;54086;50.126;8.710;2023-02-11T04:12:09;45.67;;;21.93;;
67156;SDS011;54086;50.126;8.710;2023-02-11T04:14:35;44.92;;;21.15;;
67156;SDS011;54086;50.126;8.710;2023-02-11T04:17:00;46.23;;;21.73;;
67156;SDS011;54086;50.126;8.710;2023-02-11T04:19:26;41.90;;;22.90;;
67156;SDS011;54086;50.126;8.710;2023-02-11T04:21:51;43.50;;;21.03;;
67156;SDS011;54086;50.126;8.710;2023-02-11T04:24:17;45.70;;;21.50;;
67156;SDS011;54086;50.126;8.710;2023-02-11T04:26:42;40.80;;;20.77;;
67156;SDS011;54086;50.126;8.710;2023-02-11T04:29:08;45.30;;;21.03;;
67156;SDS011;54086;50.126;8.710;2023-02-11T04:31:33;45.08;;;20.75;;
67156;SDS011;54086;50.126;8.710;2023-02-11T04:33:58;39.33;;;18.97;;
67156;SDS011;54086;50.126;8.710;2023-02-11T04:36:24;38.93;;;19.80;;
67156;SDS011;54086;50.126;8.710;2023-02-11T04:38:49;43.60;;;21.83;;
67156;SDS011;54086;50.126;8.710;2023-02-11T04:41:14;40.07;;;20.20;;
67156;SDS011;54086;50.126;8.710;2023-02-11T04:43:40;46.40;;;21.27;;
67156;SDS011;54086;50.126;8.710;2023-02-11T04:46:05;41.10;;;20.13;;
67156;SDS011;54086;50.126;8.710;2023-02-11T04:48:30;41.50;;;19.97;;
67156;SDS011;54086;50.126;8.710;2023-02-11T04:50:56;41.87;;;19.83;;
67156;SDS011;54086;50.126;8.710;2023-02-11T04:53:21;40.57;;;19.47;;
67156;SDS011;54086;50.126;8.710;2023-02-11T04:55:47;42.43;;;20.20;;
67156;SDS011;54086;50.126;8.710;2023-02-11T04:58:14;44.67;;;20.42;;
67156;SDS011;54086;50.126;8.710;2023-02-11T05:00:40;38.43;;;19.60;;
67156;SDS011;54086;50.126;8.710;2023-02-11T05:03:05;40.53;;;19.73;;
67156;SDS011;54086;50.126;8.710;2023-02-11T05:05:30;39.10;;;19.67;;
67156;SDS011;54086;50.126;8.710;2023-02-11T05:07:56;39.17;;;19.07;;
67156;SDS011;54086;50.126;8.710;2023-02-11T05:10:21;43.30;;;20.27;;
67156;SDS011;54086;50.126;8.710;2023-02-11T05:12:47;39.60;;;20.17;;
67156;SDS011;54086;50.126;8.710;2023-02-11T05:15:13;41.22;;;20.02;;
67156;SDS011;54086;50.126;8.710;2023-02-11T05:17:38;41.90;;;19.58;;
67156;SDS011;54086;50.126;8.710;2023-02-11T05:20:04;38.80;;;18.77;;
67156;SDS011;54086;50.126;8.710;2023-02-11T05:22:30;41.03;;;20.20;;
67156;SDS011;54086;50.126;8.710;2023-02-11T05:24:55;38.72;;;19.98;;
67156;SDS011;54086;50.126;8.710;2023-02-11T05:27:20;44.97;;;19.13;;
67156;SDS011;54086;50.126;8.710;2023-02-11T05:29:46;37.23;;;19.03;;
67156;SDS011;54086;50.126;8.710;2023-02-11T05:32:11;37.80;;;18.63;;
67156;SDS011;54086;50.126;8.710;2023-02-11T05:34:36;43.80;;;20.43;;
67156;SDS011;54086;50.126;8.710;2023-02-11T05:37:02;36.87;;;20.40;;
67156;SDS011;54086;50.126;8.710;2023-02-11T05:39:27;40.37;;;20.97;;
67156;SDS011;54086;50.126;8.710;2023-02-11T05:41:52;39.38;;;19.17;;
67156;SDS011;54086;50.126;8.710;2023-02-11T05:44:18;39.87;;;18.97;;
67156;SDS011;54086;50.126;8.710;2023-02-11T05:46:43;39.93;;;18.90;;
67156;SDS011;54086;50.126;8.710;2023-02-11T05:49:09;41.30;;;20.07;;
67156;SDS011;54086;50.126;8.710;2023-02-11T05:51:34;41.20;;;19.90;;
67156;SDS011;54086;50.126;8.710;2023-02-11T05:53:59;37.80;;;20.40;;
67156;SDS011;54086;50.126;8.710;2023-02-11T05:56:25;41.47;;;19.73;;
67156;SDS011;54086;50.126;8.710;2023-02-11T05:58:50;39.17;;;19.13;;
67156;SDS011;54086;50.126;8.710;2023-02-11T06:01:15;38.13;;;19.10;;
67156;SDS011;54086;50.126;8.710;2023-02-11T06:03:41;39.37;;;18.87;;
67156;SDS011;54086;50.126;8.710;2023-02-11T06:06:10;36.17;;;17.98;;
67156;SDS011;54086;50.126;8.710;2023-02-11T06:08:36;41.63;;;20.88;;
67156;SDS011;54086;50.126;8.710;2023-02-11T06:11:02;37.63;;;18.48;;
67156;SDS011;54086;50.126;8.710;2023-02-11T06:13:27;39.83;;;19.03;;
67156;SDS011;54086;50.126;8.710;2023-02-11T06:15:57;40.17;;;19.40;;
67156;SDS011;54086;50.126;8.710;2023-02-11T06:18:23;40.67;;;18.92;;
67156;SDS011;54086;50.126;8.710;2023-02-11T06:20:49;37.90;;;19.43;;
67156;SDS011;54086;50.126;8.710;2023-02-11T06:23:14;39.63;;;18.95;;
67156;SDS011;54086;50.126;8.710;2023-02-11T06:25:40;36.97;;;18.10;;
67156;SDS011;54086;50.126;8.710;2023-02-11T06:28:05;42.77;;;19.77;;
67156;SDS011;54086;50.126;8.710;2023-02-11T06:30:30;37.30;;;19.77;;
67156;SDS011;54086;50.126;8.710;2023-02-11T06:32:56;34.63;;;18.87;;
67156;SDS011;54086;50.126;8.710;2023-02-11T06:35:21;43.20;;;20.70;;
67156;SDS011;54086;50.126;8.710;2023-02-11T06:37:46;40.97;;;19.95;;
67156;SDS011;54086;50.126;8.710;2023-02-11T06:40:13;37.57;;;18.70;;
67156;SDS011;54086;50.126;8.710;2023-02-11T06:42:39;35.15;;;17.38;;
67156;SDS011;54086;50.126;8.710;2023-02-11T06:45:05;42.03;;;20.37;;
67156;SDS011;54086;50.126;8.710;2023-02-11T06:47:33;41.97;;;19.90;;
67156;SDS011;54086;50.126;8.710;2023-02-11T06:49:58;42.50;;;18.92;;
67156;SDS011;54086;50.126;8.710;2023-02-11T06:52:24;42.97;;;19.90;;
67156;SDS011;54086;50.126;8.710;2023-02-11T06:54:49;39.43;;;18.63;;
67156;SDS011;54086;50.126;8.710;2023-02-11T06:57:15;39.37;;;19.00;;
67156;SDS011;54086;50.126;8.710;2023-02-11T06:59:40;39.78;;;20.00;;
67156;SDS011;54086;50.126;8.710;2023-02-11T07:02:07;37.27;;;18.93;;
67156;SDS011;54086;50.126;8.710;2023-02-11T07:04:33;41.30;;;19.05;;
67156;SDS011;54086;50.126;8.710;2023-02-11T07:06:59;38.10;;;18.97;;
67156;SDS011;54086;50.126;8.710;2023-02-11T07:09:24;37.13;;;18.93;;
67156;SDS011;54086;50.126;8.710;2023-02-11T07:11:49;38.50;;;18.83;;
67156;SDS011;54086;50.126;8.710;2023-02-11T07:14:15;36.27;;;16.87;;
67156;SDS011;54086;50.126;8.710;2023-02-11T07:16:40;37.30;;;16.80;;
67156;SDS011;54086;50.126;8.710;2023-02-11T07:19:06;33.10;;;17.15;;
67156;SDS011;54086;50.126;8.710;2023-02-11T07:21:31;36.63;;;18.10;;
67156;SDS011;54086;50.126;8.710;2023-02-11T07:23:57;35.07;;;17.00;;
67156;SDS011;54086;50.126;8.710;2023-02-11T07:26:22;41.00;;;18.93;;
67156;SDS011;54086;50.126;8.710;2023-02-11T07:28:49;36.80;;;17.50;;
67156;SDS011;54086;50.126;8.710;2023-02-11T07:31:17;36.47;;;17.48;;
67156;SDS011;54086;50.126;8.710;2023-02-11T07:33:45;35.80;;;16.92;;
67156;SDS011;54086;50.126;8.710;2023-02-11T07:36:11;31.70;;;16.37;;
67156;SDS011;54086;50.126;8.710;2023-02-11T07:38:38;33.97;;;17.65;;
67156;SDS011;54086;50.126;8.710;2023-02-11T07:41:05;33.30;;;16.63;;
67156;SDS011;54086;50.126;8.710;2023-02-11T07:43:32;38.42;;;18.00;;
67156;SDS011;54086;50.126;8.710;2023-02-11T07:45:58;35.60;;;17.30;;
67156;SDS011;54086;50.126;8.710;2023-02-11T07:48:26;34.13;;;16.17;;
67156;SDS011;54086;50.126;8.710;2023-02-11T07:50:52;35.87;;;17.07;;
67156;SDS011;54086;50.126;8.710;2023-02-11T07:53:17;36.53;;;16.87;;
67156;SDS011;54086;50.126;8.710;2023-02-11T07:55:42;33.53;;;16.80;;
67156;SDS011;54086;50.126;8.710;2023-02-11T07:58:08;33.53;;;16.38;;
67156;SDS011;54086;50.126;8.710;2023-02-11T08:00:33;34.43;;;17.73;;
67156;SDS011;54086;50.126;8.710;2023-02-11T08:02:59;30.03;;;15.83;;
67156;SDS011;54086;50.126;8.710;2023-02-11T08:05:24;36.27;;;18.43;;
67156;SDS011;54086;50.126;8.710;2023-02-11T08:07:50;36.37;;;17.90;;
67156;SDS011;54086;50.126;8.710;2023-02-11T08:10:17;35.60;;;18.67;;
67156;SDS011;54086;50.126;8.710;2023-02-11T08:12:43;34.50;;;17.85;;
67156;SDS011;54086;50.126;8.710;2023-02-11T08:15:08;36.23;;;17.10;;
67156;SDS011;54086;50.126;8.710;2023-02-11T08:17:34;31.20;;;16.67;;
67156;SDS011;54086;50.126;8.710;2023-02-11T08:20:00;35.72;;;18.55;;
67156;SDS011;54086;50.126;8.710;2023-02-11T08:22:26;39.33;;;17.57;;
67156;SDS011;54086;50.126;8.710;2023-02-11T08:24:51;34.87;;;17.00;;
67156;SDS011;54086;50.126;8.710;2023-02-11T08:27:16;34.60;;;16.63;;
67156;SDS011;54086;50.126;8.710;2023-02-11T08:29:42;33.13;;;16.33;;
67156;SDS011;54086;50.126;8.710;2023-02-11T08:32:07;36.03;;;18.70;;
67156;SDS011;54086;50.126;8.710;2023-02-11T08:34:33;40.37;;;17.87;;
67156;SDS011;54086;50.126;8.710;2023-02-11T08:36:58;35.90;;;17.67;;
67156;SDS011;54086;50.126;8.710;2023-02-11T08:39:23;34.10;;;17.10;;
67156;SDS011;54086;50.126;8.710;2023-02-11T08:41:52;36.17;;;17.63;;
67156;SDS011;54086;50.126;8.710;2023-02-11T08:44:21;35.58;;;17.55;;
67156;SDS011;54086;50.126;8.710;2023-02-11T08:46:47;41.42;;;18.67;;
67156;SDS011;54086;50.126;8.710;2023-02-11T08:49:13;33.90;;;16.97;;
67156;SDS011;54086;50.126;8.710;2023-02-11T08:51:39;36.15;;;17.52;;
67156;SDS011;54086;50.126;8.710;2023-02-11T08:54:04;34.00;;;18.10;;
67156;SDS011;54086;50.126;8.710;2023-02-11T08:56:33;34.38;;;17.70;;
67156;SDS011;54086;50.126;8.710;2023-02-11T08:58:59;35.90;;;17.85;;
67156;SDS011;54086;50.126;8.710;2023-02-11T09:01:27;32.43;;;16.60;;
67156;SDS011;54086;50.126;8.710;2023-02-11T09:03:54;35.55;;;17.80;;
67156;SDS011;54086;50.126;8.710;2023-02-11T09:06:20;35.78;;;17.02;;
67156;SDS011;54086;50.126;8.710;2023-02-11T09:08:47;33.67;;;17.30;;
67156;SDS011;54086;50.126;8.710;2023-02-11T09:11:14;29.48;;;16.10;;
67156;SDS011;54086;50.126;8.710;2023-02-11T09:13:43;31.83;;;17.42;;
67156;SDS011;54086;50.126;8.710;2023-02-11T09:16:15;35.85;;;17.60;;
67156;SDS011;54086;50.126;8.710;2023-02-11T09:18:46;33.85;;;17.38;;
67156;SDS011;54086;50.126;8.710;2023-02-11T09:21:13;33.97;;;17.37;;
67156;SDS011;54086;50.126;8.710;2023-02-11T09:23:39;36.85;;;18.27;;
67156;SDS011;54086;50.126;8.710;2023-02-11T09:26:17;37.88;;;19.13;;
67156;SDS011;54086;50.126;8.710;2023-02-11T09:28:46;36.50;;;18.70;;
67156;SDS011;54086;50.126;8.710;2023-02-11T09:31:13;37.70;;;18.85;;
67156;SDS011;54086;50.126;8.710;2023-02-11T09:33:41;41.43;;;19.47;;
67156;SDS011;54086;50.126;8.710;2023-02-11T09:36:12;41.50;;;18.45;;
67156;SDS011;54086;50.126;8.710;2023-02-11T09:38:39;33.00;;;18.08;;
67156;SDS011;54086;50.126;8.710;2023-02-11T09:41:04;39.13;;;18.80;;
67156;SDS011;54086;50.126;8.710;2023-02-11T09:43:41;36.42;;;18.38;;
67156;SDS011;54086;50.126;8.710;2023-02-11T09:46:14;36.38;;;18.15;;
67156;SDS011;54086;50.126;8.710;2023-02-11T09:48:41;36.33;;;18.27;;
67156;SDS011;54086;50.126;8.710;2023-02-11T09:51:19;38.93;;;17.97;;
67156;SDS011;54086;50.126;8.710;2023-02-11T09:54:10;39.50;;;18.90;;
67156;SDS011;54086;50.126;8.710;2023-02-11T09:56:40;36.90;;;19.15;;
67156;SDS011;54086;50.126;8.710;2023-02-11T09:59:09;35.83;;;18.57;;
67156;SDS011;54086;50.126;8.710;2023-02-11T10:01:40;37.35;;;19.35;;
67156;SDS011;54086;50.126;8.710;2023-02-11T10:10:03;37.10;;;18.65;;
67156;SDS011;54086;50.126;8.710;2023-02-11T10:18:09;34.30;;;18.33;;
67156;SDS011;54086;50.126;8.710;2023-02-11T10:23:24;41.25;;;19.50;;
67156;SDS011;54086;50.126;8.710;2023-02-11T10:25:53;38.53;;;19.67;;
67156;SDS011;54086;50.126;8.710;2023-02-11T10:28:28;40.97;;;20.17;;
67156;SDS011;54086;50.126;8.710;2023-02-11T10:30:57;36.53;;;19.13;;
67156;SDS011;54086;50.126;8.710;2023-02-11T10:33:27;36.10;;;19.13;;
67156;SDS011;54086;50.126;8.710;2023-02-11T10:35:57;37.88;;;19.27;;
67156;SDS011;54086;50.126;8.710;2023-02-11T10:38:23;33.97;;;18.10;;
67156;SDS011;54086;50.126;8.710;2023-02-11T10:40:49;38.67;;;19.67;;
67156;SDS011;54086;50.126;8.710;2023-02-11T10:43:15;40.90;;;19.97;;
67156;SDS011;54086;50.126;8.710;2023-02-11T10:51:22;35.38;;;17.90;;
67156;SDS011;54086;50.126;8.710;2023-02-11T10:54:15;42.22;;;18.92;;
67156;SDS011;54086;50.126;8.710;2023-02-11T10:56:44;36.97;;;17.58;;
67156;SDS011;54086;50.126;8.710;2023-02-11T10:59:16;34.13;;;17.90;;
67156;SDS011;54086;50.126;8.710;2023-02-11T11:02:32;34.57;;;17.27;;
67156;SDS011;54086;50.126;8.710;2023-02-11T11:04:56;35.63;;;17.50;;
67156;SDS011;54086;50.126;8.710;2023-02-11T11:07:25;34.08;;;16.77;;
67156;SDS011;54086;50.126;8.710;2023-02-11T11:12:27;35.17;;;17.48;;
67156;SDS011;54086;50.126;8.710;2023-02-11T11:14:56;36.73;;;17.57;;
67156;SDS011;54086;50.126;8.710;2023-02-11T11:17:23;33.00;;;17.08;;
67156;SDS011;54086;50.126;8.710;2023-02-11T11:19:53;34.70;;;17.25;;
67156;SDS011;54086;50.126;8.710;2023-02-11T11:22:37;37.72;;;17.85;;
67156;SDS011;54086;50.126;8.710;2023-02-11T11:25:03;32.50;;;17.73;;
67156;SDS011;54086;50.126;8.710;2023-02-11T11:27:28;35.43;;;17.37;;
67156;SDS011;54086;50.126;8.710;2023-02-11T11:29:54;34.80;;;17.77;;
67156;SDS011;54086;50.126;8.710;2023-02-11T11:32:30;39.37;;;18.07;;
67156;SDS011;54086;50.126;8.710;2023-02-11T11:34:58;35.90;;;18.08;;
67156;SDS011;54086;50.126;8.710;2023-02-11T11:37:33;35.20;;;17.67;;
67156;SDS011;54086;50.126;8.710;2023-02-11T11:40:07;39.45;;;17.92;;
67156;SDS011;54086;50.126;8.710;2023-02-11T11:42:46;39.50;;;18.50;;
67156;SDS011;54086;50.126;8.710;2023-02-11T11:45:38;34.00;;;17.23;;
67156;SDS011;54086;50.126;8.710;2023-02-11T11:48:25;38.78;;;18.42;;
67156;SDS011;54086;50.126;8.710;2023-02-11T11:51:09;36.33;;;17.65;;
67156;SDS011;54086;50.126;8.710;2023-02-11T11:56:17;36.83;;;17.88;;
67156;SDS011;54086;50.126;8.710;2023-02-11T11:58:45;38.23;;;17.90;;
67156;SDS011;54086;50.126;8.710;2023-02-11T12:09:34;35.08;;;17.13;;
67156;SDS011;54086;50.126;8.710;2023-02-11T12:22:44;32.95;;;16.73;;
67156;SDS011;54086;50.126;8.710;2023-02-11T12:28:30;38.10;;;16.77;;
67156;SDS011;54086;50.126;8.710;2023-02-11T12:31:13;33.22;;;17.48;;
67156;SDS011;54086;50.126;8.710;2023-02-11T12:50:16;31.33;;;15.70;;
67156;SDS011;54086;50.126;8.710;2023-02-11T12:52:53;31.77;;;16.43;;
67156;SDS011;54086;50.126;8.710;2023-02-11T12:55:27;36.53;;;17.15;;
67156;SDS011;54086;50.126;8.710;2023-02-11T12:57:57;31.48;;;15.60;;
67156;SDS011;54086;50.126;8.710;2023-02-11T13:00:27;31.50;;;15.45;;
67156;SDS011;54086;50.126;8.710;2023-02-11T13:05:50;32.50;;;16.30;;
67156;SDS011;54086;50.126;8.710;2023-02-11T13:08:29;31.75;;;15.85;;
67156;SDS011;54086;50.126;8.710;2023-02-11T13:10:58;30.73;;;15.27;;
67156;SDS011;54086;50.126;8.710;2023-02-11T13:13:31;37.53;;;16.52;;
67156;SDS011;54086;50.126;8.710;2023-02-11T13:16:05;32.95;;;16.52;;
67156;SDS011;54086;50.126;8.710;2023-02-11T13:23:43;29.73;;;14.63;;
67156;SDS011;54086;50.126;8.710;2023-02-11T13:31:54;32.23;;;14.97;;
67156;SDS011;54086;50.126;8.710;2023-02-11T13:34:25;32.67;;;16.27;;
67156;SDS011;54086;50.126;8.710;2023-02-11T13:37:24;28.52;;;14.32;;
67156;SDS011;54086;50.126;8.710;2023-02-11T13:40:03;30.33;;;15.88;;
67156;SDS011;54086;50.126;8.710;2023-02-11T13:42:31;29.75;;;14.32;;
67156;SDS011;54086;50.126;8.710;2023-02-11T13:44:58;29.30;;;14.50;;
67156;SDS011;54086;50.126;8.710;2023-02-11T13:47:26;33.58;;;14.80;;
67156;SDS011;54086;50.126;8.710;2023-02-11T13:49:57;32.22;;;15.95;;
67156;SDS011;54086;50.126;8.710;2023-02-11T13:52:31;32.10;;;14.73;;
67156;SDS011;54086;50.126;8.710;2023-02-11T13:55:08;27.98;;;14.38;;
67156;SDS011;54086;50.126;8.710;2023-02-11T13:57:43;27.67;;;13.70;;
67156;SDS011;54086;50.126;8.710;2023-02-11T14:14:18;25.52;;;13.68;;
67156;SDS011;54086;50.126;8.710;2023-02-11T14:19:35;27.87;;;13.27;;
67156;SDS011;54086;50.126;8.710;2023-02-11T14:24:49;27.00;;;13.88;;
67156;SDS011;54086;50.126;8.710;2023-02-11T14:27:19;27.67;;;12.73;;
67156;SDS011;54086;50.126;8.710;2023-02-11T14:32:46;27.47;;;12.50;;
67156;SDS011;54086;50.126;8.710;2023-02-11T14:35:43;26.60;;;13.13;;
67156;SDS011;54086;50.126;8.710;2023-02-11T14:39:05;26.63;;;12.80;;
67156;SDS011;54086;50.126;8.710;2023-02-11T14:41:55;27.75;;;14.02;;
67156;SDS011;54086;50.126;8.710;2023-02-11T14:44:26;28.17;;;13.80;;
67156;SDS011;54086;50.126;8.710;2023-02-11T14:46:54;32.30;;;14.23;;
67156;SDS011;54086;50.126;8.710;2023-02-11T14:51:56;22.88;;;12.05;;
67156;SDS011;54086;50.126;8.710;2023-02-11T14:54:27;25.98;;;13.65;;
67156;SDS011;54086;50.126;8.710;2023-02-11T14:57:13;27.48;;;13.68;;
67156;SDS011;54086;50.126;8.710;2023-02-11T14:59:51;31.17;;;13.97;;
67156;SDS011;54086;50.126;8.710;2023-02-11T15:02:22;28.75;;;13.88;;
67156;SDS011;54086;50.126;8.710;2023-02-11T15:05:11;31.27;;;14.80;;
67156;SDS011;54086;50.126;8.710;2023-02-11T15:07:46;25.58;;;13.23;;
67156;SDS011;54086;50.126;8.710;2023-02-11T15:10:16;24.98;;;12.68;;
67156;SDS011;54086;50.126;8.710;2023-02-11T15:13:05;26.30;;;12.63;;
67156;SDS011;54086;50.126;8.710;2023-02-11T15:15:32;23.70;;;12.50;;
67156;SDS011;54086;50.126;8.710;2023-02-11T15:18:00;24.33;;;13.10;;
67156;SDS011;54086;50.126;8.710;2023-02-11T15:20:28;32.88;;;13.10;;
67156;SDS011;54086;50.126;8.710;2023-02-11T15:22:57;25.70;;;13.57;;
67156;SDS011;54086;50.126;8.710;2023-02-11T15:25:28;24.40;;;13.10;;
67156;SDS011;54086;50.126;8.710;2023-02-11T15:27:55;26.42;;;12.80;;
67156;SDS011;54086;50.126;8.710;2023-02-11T15:32:47;21.07;;;11.93;;
67156;SDS011;54086;50.126;8.710;2023-02-11T15:35:21;26.15;;;12.50;;
67156;SDS011;54086;50.126;8.710;2023-02-11T15:37:47;24.73;;;13.37;;
67156;SDS011;54086;50.126;8.710;2023-02-11T15:40:14;24.25;;;12.43;;
67156;SDS011;54086;50.126;8.710;2023-02-11T15:42:59;26.20;;;12.10;;
67156;SDS011;54086;50.126;8.710;2023-02-11T15:47:58;24.98;;;11.93;;
67156;SDS011;54086;50.126;8.710;2023-02-11T15:50:31;22.25;;;11.02;;
67156;SDS011;54086;50.126;8.710;2023-02-11T15:53:17;25.73;;;11.77;;
67156;SDS011;54086;50.126;8.710;2023-02-11T15:55:44;21.67;;;10.70;;
67156;SDS011;54086;50.126;8.710;2023-02-11T15:58:10;20.73;;;10.83;;
67156;SDS011;54086;50.126;8.710;2023-02-11T16:00:37;21.45;;;9.75;;
67156;SDS011;54086;50.126;8.710;2023-02-11T16:03:24;20.60;;;10.63;;
67156;SDS011;54086;50.126;8.710;2023-02-11T16:05:56;24.60;;;12.45;;
67156;SDS011;54086;50.126;8.710;2023-02-11T16:08:44;25.55;;;11.63;;
67156;SDS011;54086;50.126;8.710;2023-02-11T16:11:25;21.70;;;10.90;;
67156;SDS011;54086;50.126;8.710;2023-02-11T16:13:54;19.65;;;10.20;;
67156;SDS011;54086;50.126;8.710;2023-02-11T16:16:30;23.73;;;11.05;;
67156;SDS011;54086;50.126;8.710;2023-02-11T16:18:58;23.08;;;11.30;;
67156;SDS011;54086;50.126;8.710;2023-02-11T16:21:28;23.43;;;11.13;;
67156;SDS011;54086;50.126;8.710;2023-02-11T16:24:03;20.08;;;10.65;;
67156;SDS011;54086;50.126;8.710;2023-02-11T16:26:38;21.13;;;11.15;;
67156;SDS011;54086;50.126;8.710;2023-02-11T16:29:17;25.05;;;11.63;;
67156;SDS011;54086;50.126;8.710;2023-02-11T16:31:48;23.08;;;10.95;;
67156;SDS011;54086;50.126;8.710;2023-02-11T16:34:18;20.77;;;10.53;;
67156;SDS011;54086;50.126;8.710;2023-02-11T16:36:46;25.15;;;11.18;;
67156;SDS011;54086;50.126;8.710;2023-02-11T16:39:12;24.45;;;12.07;;
67156;SDS011;54086;50.126;8.710;2023-02-11T16:41:38;22.85;;;11.25;;
67156;SDS011;54086;50.126;8.710;2023-02-11T16:44:04;26.47;;;12.80;;
67156;SDS011;54086;50.126;8.710;2023-02-11T16:46:29;28.30;;;13.05;;
67156;SDS011;54086;50.126;8.710;2023-02-11T16:48:55;25.63;;;13.43;;
67156;SDS011;54086;50.126;8.710;2023-02-11T16:51:22;26.05;;;13.10;;
67156;SDS011;54086;50.126;8.710;2023-02-11T16:53:48;23.60;;;12.73;;
67156;SDS011;54086;50.126;8.710;2023-02-11T16:56:14;27.57;;;13.83;;